Time;durP1;ratioP1;P1;durP2;ratioP2;P2;SDS_P1;SDS_P2;PMS_P1;PMS_P2;Temp;Humidity;BMP_temperature;BMP_pressure;BME280_temperature;BME280_humidity;BME280_pressure;Samples;Min_cycle;Max_cycle;Signal;HPM_P1;HPM_P2
2023/10/29 00:00:55;;;;;;;12.63;5.40;;;;;;;;;;5046541;28;20036;-83
2023/10/29 00:03:20;;;;;;;11.55;5.63;;;;;;;;;;5041142;28;20041;-83
2023/10/29 00:05:45;;;;;;;10.70;5.57;;;;;;;;;;5048003;28;20039;-83
2023/10/29 00:08:18;;;;;;;9.82;4.85;;;;;;;;;;5059439;28;20041;-81
2023/10/29 00:10:44;;;;;;;7.95;4.32;;;;;;;;;;5055679;28;20068;-82
2023/10/29 00:13:09;;;;;;;8.20;4.13;;;;;;;;;;5032243;28;20072;-83
2023/10/29 00:15:35;;;;;;;10.05;4.45;;;;;;;;;;5048635;28;20029;-82
2023/10/29 00:18:08;;;;;;;9.65;4.30;;;;;;;;;;5037522;28;20450;-83
2023/10/29 00:20:34;;;;;;;9.75;4.10;;;;;;;;;;5062008;28;20040;-82
2023/10/29 00:22:59;;;;;;;8.65;3.92;;;;;;;;;;5058946;28;20391;-83
2023/10/29 00:25:25;;;;;;;7.00;3.92;;;;;;;;;;5024581;28;20580;-82
2023/10/29 00:27:51;;;;;;;10.93;4.40;;;;;;;;;;5028489;28;20044;-83
2023/10/29 00:30:16;;;;;;;9.23;3.85;;;;;;;;;;5020814;28;20124;-82
2023/10/29 00:32:41;;;;;;;9.50;3.65;;;;;;;;;;5049063;28;20032;-82
2023/10/29 00:35:07;;;;;;;7.68;3.53;;;;;;;;;;5050803;28;20142;-82
2023/10/29 00:37:33;;;;;;;11.88;3.13;;;;;;;;;;5044986;28;20044;-81
2023/10/29 00:40:01;;;;;;;7.93;2.88;;;;;;;;;;5049254;28;20059;-81
2023/10/29 00:42:27;;;;;;;7.28;3.05;;;;;;;;;;5058520;28;21795;-80
2023/10/29 00:44:52;;;;;;;13.05;3.53;;;;;;;;;;5047350;28;20038;-81
2023/10/29 00:47:18;;;;;;;4.78;2.80;;;;;;;;;;5012565;28;20511;-83
2023/10/29 00:49:43;;;;;;;7.68;2.58;;;;;;;;;;5031486;28;20545;-82
2023/10/29 00:52:09;;;;;;;7.97;2.88;;;;;;;;;;5041840;28;20066;-82
2023/10/29 00:54:39;;;;;;;7.60;2.90;;;;;;;;;;5042763;28;20542;-82
2023/10/29 00:57:06;;;;;;;9.02;2.55;;;;;;;;;;5051128;28;20408;-83
2023/10/29 00:59:34;;;;;;;9.15;3.15;;;;;;;;;;5023545;28;20039;-82
2023/10/29 01:01:59;;;;;;;;;;;;;;;;;;5014123;28;20550;-82
2023/10/29 01:04:25;;;;;;;8.43;2.83;;;;;;;;;;5044218;28;19917;-82
2023/10/29 01:06:51;;;;;;;4.28;2.30;;;;;;;;;;5054321;28;21420;-82
2023/10/29 01:09:17;;;;;;;9.82;3.20;;;;;;;;;;5046585;28;20063;-82
2023/10/29 01:11:46;;;;;;;8.90;3.03;;;;;;;;;;5036133;28;20032;-82
2023/10/29 01:14:12;;;;;;;6.88;2.40;;;;;;;;;;5049839;28;20036;-83
2023/10/29 01:16:39;;;;;;;8.23;2.63;;;;;;;;;;5043115;28;20040;-83
2023/10/29 01:19:04;;;;;;;6.75;2.63;;;;;;;;;;5059536;28;20123;-82
2023/10/29 01:21:33;;;;;;;7.13;2.40;;;;;;;;;;5036310;28;20540;-84
2023/10/29 01:24:00;;;;;;;7.10;2.88;;;;;;;;;;5053317;28;20032;-82
2023/10/29 01:26:31;;;;;;;10.20;3.35;;;;;;;;;;5045581;28;20037;-83
2023/10/29 01:28:57;;;;;;;7.30;2.60;;;;;;;;;;5021952;28;20381;-82
2023/10/29 01:31:22;;;;;;;9.65;2.58;;;;;;;;;;5015279;28;20094;-83
2023/10/29 01:33:48;;;;;;;6.20;2.38;;;;;;;;;;5038660;28;20123;-83
2023/10/29 01:36:25;;;;;;;6.53;2.30;;;;;;;;;;5047768;28;20558;-83
2023/10/29 01:38:50;;;;;;;7.80;2.47;;;;;;;;;;5032368;28;20415;-82
2023/10/29 01:41:18;;;;;;;6.22;2.40;;;;;;;;;;5046922;28;20043;-82
2023/10/29 01:43:43;;;;;;;;;;;;;;;;;;5061978;28;20037;-83
2023/10/29 01:46:09;;;;;;;6.97;2.42;;;;;;;;;;5060814;28;19923;-82
2023/10/29 01:48:34;;;;;;;6.38;2.38;;;;;;;;;;5028704;28;20472;-83
2023/10/29 01:51:04;;;;;;;8.45;2.50;;;;;;;;;;5048846;28;20482;-83
2023/10/29 01:53:30;;;;;;;7.45;2.45;;;;;;;;;;5044732;28;20036;-82
2023/10/29 01:55:55;;;;;;;6.80;2.60;;;;;;;;;;5044403;28;20492;-83
2023/10/29 01:58:44;;;;;;;4.85;2.30;;;;;;;;;;5043390;28;20121;-83
2023/10/29 02:01:11;;;;;;;7.03;2.33;;;;;;;;;;4944460;28;20506;-83
2023/10/29 02:03:37;;;;;;;7.18;2.70;;;;;;;;;;4938877;28;20031;-83
2023/10/29 02:06:20;;;;;;;6.82;2.50;;;;;;;;;;4920121;28;20054;-83
2023/10/29 02:08:45;;;;;;;7.00;2.50;;;;;;;;;;4925444;28;20035;-82
2023/10/29 02:11:13;;;;;;;5.95;2.30;;;;;;;;;;4942693;28;20561;-82
2023/10/29 02:13:39;;;;;;;5.35;2.58;;;;;;;;;;4938889;28;20039;-83
2023/10/29 02:16:04;;;;;;;9.65;3.15;;;;;;;;;;4915480;29;20430;-83
2023/10/29 02:18:30;;;;;;;8.52;2.50;;;;;;;;;;4932959;28;20125;-83
2023/10/29 02:21:01;;;;;;;4.93;2.22;;;;;;;;;;4928899;28;20038;-82
2023/10/29 02:23:27;;;;;;;4.75;2.20;;;;;;;;;;4938458;28;20042;-82
2023/10/29 02:25:53;;;;;;;6.00;2.28;;;;;;;;;;4944957;28;20072;-84
2023/10/29 02:28:18;;;;;;;6.57;2.33;;;;;;;;;;4928696;28;20078;-83
2023/10/29 02:30:44;;;;;;;6.28;2.30;;;;;;;;;;4928394;28;20051;-83
2023/10/29 02:33:22;;;;;;;5.43;2.22;;;;;;;;;;4939066;28;20039;-83
2023/10/29 02:35:49;;;;;;;6.05;2.50;;;;;;;;;;4944499;28;20038;-83
2023/10/29 02:38:18;;;;;;;8.20;2.15;;;;;;;;;;4990936;28;20040;-82
2023/10/29 02:40:43;;;;;;;5.05;2.63;;;;;;;;;;5012867;28;20110;-84
2023/10/29 02:43:16;;;;;;;6.38;2.80;;;;;;;;;;5035765;28;20479;-83
2023/10/29 02:45:42;;;;;;;6.40;2.42;;;;;;;;;;5000645;28;20116;-84
2023/10/29 02:48:15;;;;;;;5.60;2.40;;;;;;;;;;5035502;28;20621;-84
2023/10/29 02:50:41;;;;;;;6.97;2.53;;;;;;;;;;5046555;28;20046;-84
2023/10/29 02:53:09;;;;;;;6.55;2.45;;;;;;;;;;5028179;28;20040;-83
2023/10/29 02:55:35;;;;;;;9.60;2.70;;;;;;;;;;5017820;28;20052;-83
2023/10/29 02:58:01;;;;;;;6.18;3.08;;;;;;;;;;5029079;28;20778;-84
2023/10/29 03:00:27;;;;;;;6.63;2.40;;;;;;;;;;5041204;28;20044;-84
2023/10/29 03:02:52;;;;;;;6.82;2.50;;;;;;;;;;5043533;28;20033;-83
2023/10/29 03:05:17;;;;;;;9.20;2.97;;;;;;;;;;5046253;28;20383;-84
2023/10/29 03:07:43;;;;;;;6.00;2.45;;;;;;;;;;5046951;28;20059;-83
2023/10/29 03:10:09;;;;;;;7.13;2.33;;;;;;;;;;5040671;28;20364;-83
2023/10/29 03:12:35;;;;;;;7.00;2.78;;;;;;;;;;5041149;28;20566;-83
2023/10/29 03:15:01;;;;;;;5.50;2.45;;;;;;;;;;5048251;28;20492;-83
2023/10/29 03:17:26;;;;;;;7.55;3.10;;;;;;;;;;5053342;28;20044;-83
2023/10/29 03:19:52;;;;;;;8.18;3.25;;;;;;;;;;5029219;28;20037;-83
2023/10/29 03:22:23;;;;;;;8.02;2.85;;;;;;;;;;5036875;28;20549;-83
2023/10/29 03:24:49;;;;;;;9.98;2.63;;;;;;;;;;5056671;28;20507;-82
2023/10/29 03:27:18;;;;;;;6.68;2.60;;;;;;;;;;5049224;28;20044;-83
2023/10/29 03:29:43;;;;;;;8.60;2.55;;;;;;;;;;5048998;28;20474;-83
2023/10/29 03:32:09;;;;;;;6.32;2.75;;;;;;;;;;5044965;28;20171;-84
2023/10/29 03:34:38;;;;;;;5.20;2.53;;;;;;;;;;5043030;28;20091;-82
2023/10/29 03:37:03;;;;;;;7.53;2.80;;;;;;;;;;5041851;28;20033;-82
2023/10/29 03:39:31;;;;;;;8.85;3.08;;;;;;;;;;5059805;28;20043;-82
2023/10/29 03:41:56;;;;;;;5.20;2.85;;;;;;;;;;5040856;28;20040;-83
2023/10/29 03:44:22;;;;;;;8.23;2.88;;;;;;;;;;5048138;28;20048;-83
2023/10/29 03:46:51;;;;;;;7.95;3.55;;;;;;;;;;5046321;28;20039;-84
2023/10/29 03:49:19;;;;;;;9.52;3.10;;;;;;;;;;5051820;28;20423;-83
2023/10/29 03:51:48;;;;;;;11.52;3.22;;;;;;;;;;5031443;28;20131;-84
2023/10/29 03:54:14;;;;;;;8.90;3.42;;;;;;;;;;5066225;28;20771;-83
2023/10/29 03:56:39;;;;;;;8.13;3.38;;;;;;;;;;5029938;28;20032;-83
2023/10/29 03:59:05;;;;;;;9.52;3.47;;;;;;;;;;5049474;28;20041;-84
2023/10/29 04:01:31;;;;;;;8.10;3.25;;;;;;;;;;5014986;28;20508;-85
2023/10/29 04:03:57;;;;;;;9.73;3.40;;;;;;;;;;5040630;28;20033;-84
2023/10/29 04:06:30;;;;;;;7.82;3.35;;;;;;;;;;5050436;28;20508;-83
2023/10/29 04:08:55;;;;;;;7.05;3.30;;;;;;;;;;5039895;28;20029;-84
2023/10/29 04:11:20;;;;;;;7.15;3.25;;;;;;;;;;5020647;28;20033;-83
2023/10/29 04:13:47;;;;;;;9.55;3.40;;;;;;;;;;5024058;28;20056;-83
2023/10/29 04:16:13;;;;;;;7.10;3.87;;;;;;;;;;5046576;28;20408;-83
2023/10/29 04:18:38;;;;;;;7.13;3.20;;;;;;;;;;5044605;28;20037;-83
2023/10/29 04:21:06;;;;;;;6.47;3.15;;;;;;;;;;5042733;28;20063;-83
2023/10/29 04:23:31;;;;;;;7.78;2.97;;;;;;;;;;5038791;28;20044;-83
2023/10/29 04:25:57;;;;;;;8.10;3.67;;;;;;;;;;5035975;28;20028;-83
2023/10/29 04:28:22;;;;;;;7.50;3.17;;;;;;;;;;5055305;28;20071;-83
2023/10/29 04:30:49;;;;;;;6.07;3.10;;;;;;;;;;5046534;28;20033;-83
2023/10/29 04:33:14;;;;;;;6.50;3.22;;;;;;;;;;5049699;28;20608;-82
2023/10/29 04:35:39;;;;;;;8.18;3.00;;;;;;;;;;5030820;28;20067;-83
2023/10/29 04:38:05;;;;;;;11.85;3.10;;;;;;;;;;5017464;28;20520;-82
2023/10/29 04:40:31;;;;;;;8.30;2.97;;;;;;;;;;5022240;28;20027;-83
2023/10/29 04:42:56;;;;;;;10.73;3.50;;;;;;;;;;5032615;28;20044;-83
2023/10/29 04:45:22;;;;;;;10.07;3.42;;;;;;;;;;5015957;28;20048;-83
2023/10/29 04:47:47;;;;;;;6.35;3.13;;;;;;;;;;5041052;28;20048;-83
2023/10/29 04:50:13;;;;;;;7.63;3.00;;;;;;;;;;5021128;28;20033;-83
2023/10/29 04:52:39;;;;;;;5.90;3.22;;;;;;;;;;5009072;28;20594;-83
2023/10/29 04:55:08;;;;;;;6.57;3.22;;;;;;;;;;5028133;28;20021;-84
2023/10/29 04:57:44;;;;;;;5.63;2.88;;;;;;;;;;5020651;28;20347;-84
2023/10/29 05:00:10;;;;;;;8.55;2.80;;;;;;;;;;5042560;28;20039;-84
2023/10/29 05:02:38;;;;;;;8.48;2.85;;;;;;;;;;5025227;28;20041;-84
2023/10/29 05:05:06;;;;;;;6.68;2.78;;;;;;;;;;5043308;28;20404;-84
2023/10/29 05:07:33;;;;;;;8.93;3.03;;;;;;;;;;5045587;28;20029;-84
2023/10/29 05:09:58;;;;;;;8.80;3.17;;;;;;;;;;5044976;28;20084;-84
2023/10/29 05:12:24;;;;;;;7.65;3.10;;;;;;;;;;5054843;28;20069;-84
2023/10/29 05:14:51;;;;;;;8.05;3.25;;;;;;;;;;5046049;28;20073;-84
2023/10/29 05:17:19;;;;;;;8.10;3.20;;;;;;;;;;5038346;28;20503;-84
2023/10/29 05:19:44;;;;;;;7.93;2.95;;;;;;;;;;5035887;28;20500;-84
2023/10/29 05:22:10;;;;;;;7.32;3.05;;;;;;;;;;5022864;28;20032;-84
2023/10/29 05:24:39;;;;;;;6.88;3.20;;;;;;;;;;5050771;28;20113;-84
2023/10/29 05:27:04;;;;;;;8.82;3.15;;;;;;;;;;5049246;28;20020;-84
2023/10/29 05:29:32;;;;;;;6.78;3.28;;;;;;;;;;5046934;28;20514;-84
2023/10/29 05:31:58;;;;;;;9.55;2.78;;;;;;;;;;5045357;28;20667;-85
2023/10/29 05:34:35;;;;;;;9.80;3.13;;;;;;;;;;5023855;28;20183;-83
2023/10/29 05:37:00;;;;;;;8.98;2.85;;;;;;;;;;5061259;28;20055;-84
2023/10/29 05:39:51;;;;;;;6.55;2.67;;;;;;;;;;5051673;28;20033;-84
2023/10/29 05:42:16;;;;;;;5.80;2.85;;;;;;;;;;5046471;28;20043;-83
2023/10/29 05:44:42;;;;;;;8.90;2.72;;;;;;;;;;5039031;28;20496;-83
2023/10/29 05:47:07;;;;;;;9.38;2.72;;;;;;;;;;5055734;28;20040;-83
2023/10/29 05:49:59;;;;;;;10.02;2.97;;;;;;;;;;5038296;28;20037;-83
2023/10/29 05:52:25;;;;;;;9.32;2.65;;;;;;;;;;5052654;28;20037;-83
2023/10/29 05:54:53;;;;;;;6.25;2.65;;;;;;;;;;5052392;28;20491;-82
2023/10/29 05:57:18;;;;;;;7.47;2.65;;;;;;;;;;5043857;28;20045;-83
2023/10/29 05:59:44;;;;;;;6.43;2.42;;;;;;;;;;5041687;28;20037;-83
2023/10/29 06:02:11;;;;;;;7.63;2.42;;;;;;;;;;5024656;28;20032;-84
2023/10/29 06:04:40;;;;;;;10.00;2.80;;;;;;;;;;5044909;28;20395;-81
2023/10/29 06:07:06;;;;;;;8.00;2.45;;;;;;;;;;5044999;28;20274;-81
2023/10/29 06:09:31;;;;;;;4.88;2.10;;;;;;;;;;5038864;28;20384;-82
2023/10/29 06:12:00;;;;;;;7.78;2.58;;;;;;;;;;5018799;28;20504;-81
2023/10/29 06:14:25;;;;;;;7.10;2.80;;;;;;;;;;5053810;28;20112;-81
2023/10/29 06:16:57;;;;;;;7.32;2.28;;;;;;;;;;5026000;28;20428;-83
2023/10/29 06:19:23;;;;;;;5.50;2.33;;;;;;;;;;5044832;28;20051;-80
2023/10/29 06:21:54;;;;;;;8.77;2.35;;;;;;;;;;5027391;28;20041;-81
2023/10/29 06:24:20;;;;;;;6.03;2.58;;;;;;;;;;5013422;28;20055;-82
2023/10/29 06:26:45;;;;;;;6.88;2.38;;;;;;;;;;5643913;23;20135;-84
2023/10/29 06:29:11;;;;;;;7.47;2.30;;;;;;;;;;5079110;28;20075;-84
2023/10/29 06:31:36;;;;;;;6.05;2.22;;;;;;;;;;5075225;28;20470;-85
2023/10/29 06:34:09;;;;;;;6.18;2.53;;;;;;;;;;5069667;28;20032;-84
2023/10/29 06:36:35;;;;;;;6.10;2.10;;;;;;;;;;5064828;28;20509;-85
2023/10/29 06:39:00;;;;;;;7.65;2.33;;;;;;;;;;5093394;28;20042;-84
2023/10/29 06:41:46;;;;;;;5.05;2.30;;;;;;;;;;5084195;28;20036;-84
2023/10/29 06:44:11;;;;;;;6.15;2.13;;;;;;;;;;5076917;28;20057;-85
2023/10/29 06:46:37;;;;;;;8.55;2.50;;;;;;;;;;5067781;28;20039;-84
2023/10/29 06:49:05;;;;;;;6.10;2.13;;;;;;;;;;5071177;28;20543;-84
2023/10/29 06:51:30;;;;;;;5.53;2.20;;;;;;;;;;5059469;28;20042;-84
2023/10/29 06:53:56;;;;;;;6.07;2.60;;;;;;;;;;5081722;28;20426;-83
2023/10/29 06:56:21;;;;;;;9.77;2.30;;;;;;;;;;5097830;28;20035;-84
2023/10/29 06:58:47;;;;;;;7.07;2.53;;;;;;;;;;5074343;28;20399;-84
2023/10/29 07:01:21;;;;;;;6.43;2.30;;;;;;;;;;5073948;28;20029;-84
2023/10/29 07:03:46;;;;;;;5.63;2.13;;;;;;;;;;5063720;28;20517;-83
2023/10/29 07:06:14;;;;;;;5.63;2.40;;;;;;;;;;5079552;28;20032;-81
2023/10/29 07:08:39;;;;;;;9.40;2.50;;;;;;;;;;5079365;28;20119;-81
2023/10/29 07:11:05;;;;;;;6.20;2.30;;;;;;;;;;5072089;28;20115;-81
2023/10/29 07:13:31;;;;;;;6.38;2.60;;;;;;;;;;5072047;28;20389;-80
2023/10/29 07:16:02;;;;;;;6.68;2.63;;;;;;;;;;5075837;28;20068;-81
2023/10/29 07:18:28;;;;;;;6.30;2.25;;;;;;;;;;5081719;28;20035;-86
2023/10/29 07:21:00;;;;;;;7.10;2.60;;;;;;;;;;5080246;28;20107;-85
2023/10/29 07:23:26;;;;;;;6.30;2.30;;;;;;;;;;5057129;28;20044;-85
2023/10/29 07:25:56;;;;;;;8.90;2.20;;;;;;;;;;5080396;28;20061;-85
2023/10/29 07:28:21;;;;;;;6.75;2.30;;;;;;;;;;5097121;28;20081;-87
2023/10/29 07:30:55;;;;;;;9.13;2.60;;;;;;;;;;5054054;28;20044;-85
2023/10/29 07:33:20;;;;;;;6.38;2.30;;;;;;;;;;5081966;28;20364;-85
2023/10/29 07:35:46;;;;;;;5.18;2.28;;;;;;;;;;5056689;28;20081;-86
2023/10/29 07:38:11;;;;;;;8.10;2.30;;;;;;;;;;5070402;28;20490;-85
2023/10/29 07:40:37;;;;;;;7.90;2.50;;;;;;;;;;5065481;28;20036;-86
2023/10/29 07:43:05;;;;;;;7.72;2.40;;;;;;;;;;5077001;28;20028;-86
2023/10/29 07:45:31;;;;;;;6.70;2.53;;;;;;;;;;5095353;28;20051;-86
2023/10/29 07:47:57;;;;;;;6.32;2.45;;;;;;;;;;5076170;28;20032;-85
2023/10/29 07:50:22;;;;;;;4.97;2.30;;;;;;;;;;5076764;28;20915;-84
2023/10/29 07:52:48;;;;;;;6.45;2.53;;;;;;;;;;5074480;28;20040;-83
2023/10/29 07:55:13;;;;;;;7.10;2.60;;;;;;;;;;5098150;28;20375;-83
2023/10/29 07:57:39;;;;;;;6.13;2.90;;;;;;;;;;5074996;28;20032;-83
2023/10/29 08:00:15;;;;;;;5.65;2.70;;;;;;;;;;5077180;28;20047;-82
2023/10/29 08:02:42;;;;;;;5.72;2.25;;;;;;;;;;5067144;28;20028;-83
2023/10/29 08:05:09;;;;;;;6.20;2.55;;;;;;;;;;5070165;28;20089;-82
2023/10/29 08:07:38;;;;;;;6.28;2.65;;;;;;;;;;5075371;28;20089;-83
2023/10/29 08:10:09;;;;;;;7.07;2.13;;;;;;;;;;5067522;28;20568;-82
2023/10/29 08:12:38;;;;;;;8.02;2.45;;;;;;;;;;5064828;28;20040;-82
2023/10/29 08:15:03;;;;;;;5.03;2.22;;;;;;;;;;5073543;28;20033;-83
2023/10/29 08:17:34;;;;;;;6.50;2.58;;;;;;;;;;5074154;28;20533;-81
2023/10/29 08:19:59;;;;;;;6.18;2.20;;;;;;;;;;5066423;28;20494;-83
2023/10/29 08:22:30;;;;;;;7.13;2.53;;;;;;;;;;5094813;28;20043;-83
2023/10/29 08:24:56;;;;;;;6.78;2.30;;;;;;;;;;5066880;28;20036;-82
2023/10/29 08:27:24;;;;;;;6.15;2.40;;;;;;;;;;5073705;28;20044;-85
2023/10/29 08:29:52;;;;;;;6.05;2.20;;;;;;;;;;5066249;28;20037;-83
2023/10/29 08:32:18;;;;;;;8.05;2.38;;;;;;;;;;5053298;28;20150;-84
2023/10/29 08:34:43;;;;;;;4.10;2.10;;;;;;;;;;5089428;28;20052;-84
2023/10/29 08:37:10;;;;;;;7.22;2.33;;;;;;;;;;5097143;28;20036;-83
2023/10/29 08:39:36;;;;;;;5.88;2.40;;;;;;;;;;5066955;28;20043;-84
2023/10/29 08:42:02;;;;;;;5.50;2.17;;;;;;;;;;5059614;28;20036;-83
2023/10/29 08:44:31;;;;;;;4.93;2.20;;;;;;;;;;5051358;28;20517;-83
2023/10/29 08:46:56;;;;;;;6.00;2.20;;;;;;;;;;5063299;28;20544;-83
2023/10/29 08:49:21;;;;;;;4.97;1.90;;;;;;;;;;5097762;28;20032;-84
2023/10/29 08:51:50;;;;;;;5.18;1.90;;;;;;;;;;5041720;28;20123;-83
2023/10/29 08:54:15;;;;;;;5.45;2.05;;;;;;;;;;5038978;28;20078;-83
2023/10/29 08:56:41;;;;;;;6.50;2.33;;;;;;;;;;5078904;28;20116;-83
2023/10/29 08:59:06;;;;;;;5.57;2.20;;;;;;;;;;5070058;28;20032;-82
2023/10/29 09:01:40;;;;;;;4.72;1.98;;;;;;;;;;5047766;28;20123;-83
2023/10/29 09:04:06;;;;;;;6.30;2.17;;;;;;;;;;5076251;28;20040;-84
2023/10/29 09:06:35;;;;;;;4.88;2.13;;;;;;;;;;5058581;28;20502;-83
2023/10/29 09:09:00;;;;;;;5.50;2.00;;;;;;;;;;5076659;28;20393;-85
2023/10/29 09:11:36;;;;;;;5.75;2.13;;;;;;;;;;5096117;28;20032;-84
2023/10/29 09:14:04;;;;;;;5.28;1.67;;;;;;;;;;5060675;28;20478;-84
2023/10/29 09:16:30;;;;;;;4.55;2.05;;;;;;;;;;5066170;28;20071;-83
2023/10/29 09:18:55;;;;;;;6.75;2.00;;;;;;;;;;5090683;28;20036;-82
2023/10/29 09:21:21;;;;;;;4.35;1.70;;;;;;;;;;5074163;28;20051;-83
2023/10/29 09:23:46;;;;;;;5.57;1.52;;;;;;;;;;5074572;28;20039;-83
2023/10/29 09:26:11;;;;;;;4.90;1.63;;;;;;;;;;5065020;28;20036;-83
2023/10/29 09:28:37;;;;;;;5.28;1.60;;;;;;;;;;5058394;28;20498;-83
2023/10/29 09:31:04;;;;;;;4.28;1.60;;;;;;;;;;5072467;28;20056;-83
2023/10/29 09:33:29;;;;;;;3.95;1.98;;;;;;;;;;5093372;28;20123;-83
2023/10/29 09:35:55;;;;;;;4.38;1.55;;;;;;;;;;5076349;28;20115;-84
2023/10/29 09:38:21;;;;;;;5.35;1.95;;;;;;;;;;5071392;28;20059;-83
2023/10/29 09:40:51;;;;;;;3.35;1.48;;;;;;;;;;5058301;28;20047;-83
2023/10/29 09:43:20;;;;;;;4.07;1.60;;;;;;;;;;5077992;28;20039;-83
2023/10/29 09:45:48;;;;;;;3.47;1.40;;;;;;;;;;5070030;28;20068;-84
2023/10/29 09:48:15;;;;;;;3.53;1.60;;;;;;;;;;5074476;28;20480;-84
2023/10/29 09:50:43;;;;;;;6.03;1.43;;;;;;;;;;5075309;28;20040;-83
2023/10/29 09:53:11;;;;;;;4.93;1.52;;;;;;;;;;5056924;28;20059;-82
2023/10/29 09:55:41;;;;;;;5.93;1.80;;;;;;;;;;5074896;28;20044;-84
2023/10/29 09:58:07;;;;;;;3.60;1.50;;;;;;;;;;5067025;28;20032;-83
2023/10/29 10:00:34;;;;;;;3.65;1.55;;;;;;;;;;5040373;28;20039;-84
2023/10/29 10:03:00;;;;;;;7.63;1.70;;;;;;;;;;5059564;28;20587;-85
2023/10/29 10:05:28;;;;;;;6.80;1.80;;;;;;;;;;5091506;28;20474;-84
2023/10/29 10:07:56;;;;;;;3.72;1.67;;;;;;;;;;5050542;28;20667;-84
2023/10/29 10:10:37;;;;;;;4.43;1.73;;;;;;;;;;5060494;28;20067;-85
2023/10/29 10:13:09;;;;;;;4.80;1.60;;;;;;;;;;5044705;28;20453;-84
2023/10/29 10:15:35;;;;;;;3.95;1.40;;;;;;;;;;5054705;28;20032;-84
2023/10/29 10:18:04;;;;;;;4.80;1.35;;;;;;;;;;5091486;28;20444;-83
2023/10/29 10:20:30;;;;;;;4.93;1.60;;;;;;;;;;5074644;28;20492;-83
2023/10/29 10:22:56;;;;;;;3.95;1.20;;;;;;;;;;5060756;28;20043;-84
2023/10/29 10:25:23;;;;;;;3.50;1.30;;;;;;;;;;5064555;28;20040;-85
2023/10/29 10:27:53;;;;;;;3.08;1.27;;;;;;;;;;5062467;28;20056;-85
2023/10/29 10:30:42;;;;;;;3.03;1.10;;;;;;;;;;5063447;28;20131;-84
2023/10/29 10:33:15;;;;;;;6.22;1.40;;;;;;;;;;5068256;28;20102;-84
2023/10/29 10:35:45;;;;;;;3.90;1.30;;;;;;;;;;5061791;28;20510;-83
2023/10/29 10:38:12;;;;;;;3.30;0.93;;;;;;;;;;5071119;28;20128;-84
2023/10/29 10:40:38;;;;;;;3.13;1.20;;;;;;;;;;5055928;28;20732;-84
2023/10/29 10:43:07;;;;;;;4.13;1.23;;;;;;;;;;5043138;28;20066;-84
2023/10/29 10:45:36;;;;;;;3.58;1.10;;;;;;;;;;5074528;28;20062;-84
2023/10/29 10:48:05;;;;;;;4.00;1.25;;;;;;;;;;5073624;28;20063;-83
2023/10/29 10:50:32;;;;;;;4.95;1.20;;;;;;;;;;5056701;28;20040;-84
2023/10/29 10:53:01;;;;;;;4.10;1.10;;;;;;;;;;5066503;28;20709;-83
2023/10/29 10:55:28;;;;;;;2.60;1.10;;;;;;;;;;5043282;28;20047;-83
2023/10/29 10:57:59;;;;;;;2.90;1.10;;;;;;;;;;5040431;28;20063;-83
2023/10/29 11:00:28;;;;;;;3.35;0.95;;;;;;;;;;5055299;28;20028;-83
2023/10/29 11:02:55;;;;;;;2.55;1.00;;;;;;;;;;5060513;28;20028;-84
2023/10/29 11:05:20;;;;;;;4.50;0.98;;;;;;;;;;5056405;28;20071;-84
2023/10/29 11:07:46;;;;;;;2.65;1.10;;;;;;;;;;5072090;28;20028;-85
2023/10/29 11:10:13;;;;;;;15.32;2.08;;;;;;;;;;5073189;28;20055;-84
2023/10/29 11:12:40;;;;;;;7.40;2.03;;;;;;;;;;5063129;28;20036;-83
2023/10/29 11:15:13;;;;;;;4.93;1.13;;;;;;;;;;5058181;28;20040;-84
2023/10/29 11:18:04;;;;;;;2.97;0.88;;;;;;;;;;5077235;28;20035;-84
2023/10/29 11:20:39;;;;;;;3.45;0.80;;;;;;;;;;5036593;28;20426;-84
2023/10/29 11:23:21;;;;;;;4.60;1.05;;;;;;;;;;5084210;28;20035;-84
2023/10/29 11:26:19;;;;;;;2.92;0.90;;;;;;;;;;5072214;28;20055;-83
2023/10/29 11:28:52;;;;;;;3.42;1.02;;;;;;;;;;5082941;28;20487;-84
2023/10/29 11:31:19;;;;;;;3.20;1.30;;;;;;;;;;5093870;28;20039;-84
2023/10/29 11:33:46;;;;;;;2.03;0.80;;;;;;;;;;5091691;28;20534;-84
2023/10/29 11:36:35;;;;;;;4.18;0.82;;;;;;;;;;5049807;28;20099;-85
2023/10/29 11:39:15;;;;;;;4.70;0.98;;;;;;;;;;5052825;28;21892;-84
2023/10/29 11:41:46;;;;;;;2.38;1.00;;;;;;;;;;5092298;28;20032;-83
2023/10/29 11:44:28;;;;;;;2.33;0.70;;;;;;;;;;5071128;28;20043;-85
2023/10/29 11:47:02;;;;;;;2.60;0.90;;;;;;;;;;5076242;28;20047;-85
2023/10/29 11:49:30;;;;;;;2.67;0.80;;;;;;;;;;5096574;28;20559;-85
2023/10/29 11:52:03;;;;;;;2.10;0.60;;;;;;;;;;5077114;28;20036;-84
2023/10/29 11:54:29;;;;;;;3.53;0.80;;;;;;;;;;5097830;28;20029;-84
2023/10/29 11:56:57;;;;;;;2.58;0.73;;;;;;;;;;5077241;28;20024;-84
2023/10/29 11:59:38;;;;;;;;;;;;;;;;;;5073595;28;20127;-85
2023/10/29 12:02:04;;;;;;;2.88;0.82;;;;;;;;;;5075133;28;20270;-85
2023/10/29 12:04:30;;;;;;;3.92;0.85;;;;;;;;;;5060861;28;20115;-85
2023/10/29 12:06:56;;;;;;;5.47;0.93;;;;;;;;;;5092998;28;20513;-85
2023/10/29 12:09:23;;;;;;;3.92;1.20;;;;;;;;;;5076349;28;20050;-85
2023/10/29 12:11:53;;;;;;;4.88;0.80;;;;;;;;;;5072729;28;20296;-86
2023/10/29 12:14:46;;;;;;;3.20;0.77;;;;;;;;;;5059396;28;20494;-84
2023/10/29 12:17:17;;;;;;;2.70;0.85;;;;;;;;;;5071742;28;20573;-85
2023/10/29 12:19:47;;;;;;;1.70;0.68;;;;;;;;;;5062549;28;20044;-84
2023/10/29 12:22:27;;;;;;;2.95;0.65;;;;;;;;;;5054206;28;20032;-83
2023/10/29 12:24:59;;;;;;;2.03;0.70;;;;;;;;;;5096324;28;20067;-85
2023/10/29 12:27:31;;;;;;;4.07;0.90;;;;;;;;;;5068898;28;20063;-85
2023/10/29 12:29:56;;;;;;;2.65;0.70;;;;;;;;;;5072037;28;20103;-84
2023/10/29 12:32:24;;;;;;;2.42;0.70;;;;;;;;;;5067902;28;20567;-86
2023/10/29 12:34:54;;;;;;;2.90;0.80;;;;;;;;;;5087077;28;20038;-84
2023/10/29 12:37:26;;;;;;;4.00;0.73;;;;;;;;;;5075926;28;20034;-85
2023/10/29 12:40:01;;;;;;;2.00;0.63;;;;;;;;;;5085995;28;20043;-85
2023/10/29 12:42:52;;;;;;;2.15;0.77;;;;;;;;;;5071120;28;20043;-85
2023/10/29 12:45:32;;;;;;;2.58;0.88;;;;;;;;;;5076600;28;20074;-85
2023/10/29 12:48:16;;;;;;;2.90;0.70;;;;;;;;;;5093950;28;20043;-85
2023/10/29 12:50:50;;;;;;;2.50;0.77;;;;;;;;;;5060411;28;20517;-85
2023/10/29 12:53:25;;;;;;;2.05;0.80;;;;;;;;;;5066731;28;20475;-85
2023/10/29 12:55:51;;;;;;;2.08;0.63;;;;;;;;;;5084409;28;20023;-84
2023/10/29 12:58:17;;;;;;;4.13;0.73;;;;;;;;;;5079862;28;20061;-85
2023/10/29 13:00:42;;;;;;;4.15;1.00;;;;;;;;;;5083511;28;20040;-84
2023/10/29 13:03:10;;;;;;;2.38;0.93;;;;;;;;;;5097250;28;20429;-84
2023/10/29 13:05:38;;;;;;;3.65;0.80;;;;;;;;;;5075053;28;20032;-85
2023/10/29 13:08:04;;;;;;;2.05;0.73;;;;;;;;;;5065580;28;20016;-85
2023/10/29 13:10:32;;;;;;;3.08;0.70;;;;;;;;;;5095279;28;20543;-85
2023/10/29 13:12:58;;;;;;;3.22;0.80;;;;;;;;;;5096839;28;20474;-85
2023/10/29 13:15:24;;;;;;;1.75;0.70;;;;;;;;;;5064189;28;20088;-85
2023/10/29 13:17:52;;;;;;;1.63;0.63;;;;;;;;;;5070652;28;20024;-84
2023/10/29 13:20:20;;;;;;;2.65;0.80;;;;;;;;;;5076908;28;20083;-84
2023/10/29 13:22:46;;;;;;;2.53;1.17;;;;;;;;;;5095881;28;20110;-84
2023/10/29 13:25:12;;;;;;;2.42;0.60;;;;;;;;;;5070090;28;20039;-85
2023/10/29 13:27:37;;;;;;;2.80;0.73;;;;;;;;;;5091069;28;20059;-85
2023/10/29 13:30:05;;;;;;;2.33;0.70;;;;;;;;;;5063496;28;20483;-86
2023/10/29 13:32:39;;;;;;;2.00;0.70;;;;;;;;;;5061613;28;20054;-85
2023/10/29 13:35:06;;;;;;;2.30;0.77;;;;;;;;;;5065411;28;20035;-85
2023/10/29 13:37:34;;;;;;;1.83;0.55;;;;;;;;;;5093565;28;20043;-85
2023/10/29 13:40:00;;;;;;;2.53;0.70;;;;;;;;;;5094320;28;20142;-85
2023/10/29 13:42:26;;;;;;;2.55;0.70;;;;;;;;;;5078291;28;20115;-85
2023/10/29 13:44:54;;;;;;;4.35;0.80;;;;;;;;;;5056878;28;20031;-85
2023/10/29 13:47:19;;;;;;;2.08;0.70;;;;;;;;;;5051928;28;20070;-86
2023/10/29 13:49:57;;;;;;;4.18;0.90;;;;;;;;;;5077470;28;20436;-85
2023/10/29 13:52:25;;;;;;;2.15;0.60;;;;;;;;;;5066299;28;20043;-86
2023/10/29 13:54:51;;;;;;;2.38;0.73;;;;;;;;;;5025882;28;20028;-86
2023/10/29 13:57:22;;;;;;;3.08;0.90;;;;;;;;;;5055559;28;20817;-84
2023/10/29 13:59:47;;;;;;;2.40;0.68;;;;;;;;;;5065915;28;20040;-85
2023/10/29 14:02:12;;;;;;;2.80;0.68;;;;;;;;;;5059077;28;20375;-85
2023/10/29 14:04:49;;;;;;;2.90;0.60;;;;;;;;;;5078675;28;20039;-84
2023/10/29 14:07:14;;;;;;;1.98;0.60;;;;;;;;;;5078213;28;20036;-85
2023/10/29 14:09:40;;;;;;;3.03;0.75;;;;;;;;;;5054024;28;20040;-85
2023/10/29 14:12:06;;;;;;;3.25;0.70;;;;;;;;;;5080119;28;20034;-84
2023/10/29 14:14:31;;;;;;;2.35;0.88;;;;;;;;;;5074372;28;20108;-86
2023/10/29 14:16:57;;;;;;;2.03;0.70;;;;;;;;;;5084370;28;20127;-85
2023/10/29 14:19:24;;;;;;;2.08;0.70;;;;;;;;;;5050914;28;20040;-84
2023/10/29 14:21:52;;;;;;;2.78;0.88;;;;;;;;;;5045685;28;20044;-85
2023/10/29 14:24:20;;;;;;;5.63;0.80;;;;;;;;;;5074416;28;20440;-85
2023/10/29 14:26:50;;;;;;;2.25;0.80;;;;;;;;;;5091703;28;20596;-85
2023/10/29 14:29:19;;;;;;;2.90;0.90;;;;;;;;;;5096076;28;20035;-85
2023/10/29 14:31:44;;;;;;;2.92;1.00;;;;;;;;;;5080174;28;20578;-86
2023/10/29 14:34:10;;;;;;;3.75;1.15;;;;;;;;;;5057131;28;20053;-85
2023/10/29 14:36:38;;;;;;;1.85;0.88;;;;;;;;;;5052740;28;20136;-85
2023/10/29 14:39:04;;;;;;;4.18;0.90;;;;;;;;;;5074764;28;20039;-85
2023/10/29 14:41:30;;;;;;;2.65;0.77;;;;;;;;;;5029538;28;20379;-86
2023/10/29 14:44:05;;;;;;;2.95;1.10;;;;;;;;;;5065852;28;20046;-85
2023/10/29 14:46:33;;;;;;;2.58;1.00;;;;;;;;;;5030547;28;20040;-86
2023/10/29 14:49:07;;;;;;;3.22;1.10;;;;;;;;;;5079727;28;20559;-85